createdAt,value
2023-04-05T00:00:24.472Z,-0.35
2023-04-05T00:05:50.215Z,-0.42
2023-04-05T00:10:54.202Z,-0.46
2023-04-05T00:15:58.518Z,-0.53
2023-04-05T00:21:07.246Z,-0.60
2023-04-05T00:26:15.214Z,-0.69
2023-04-05T00:31:20.158Z,-0.70
2023-04-05T00:36:23.805Z,-0.67
2023-04-05T00:41:27.509Z,-0.65
2023-04-05T00:46:34.730Z,-0.55
2023-04-05T00:51:39.034Z,-0.62
2023-04-05T00:56:46.299Z,-0.73
2023-04-05T01:02:11.969Z,-0.82
2023-04-05T01:07:54.215Z,-0.95
2023-04-05T01:12:58.579Z,-1.02
2023-04-05T01:18:02.357Z,-1.09
2023-04-05T01:23:31.555Z,-1.16
2023-04-05T01:28:43.774Z,-1.22
2023-04-05T01:34:15.966Z,-1.24
2023-04-05T01:39:21.452Z,-1.26
2023-04-05T01:44:24.809Z,-1.29
2023-04-05T01:49:41.191Z,-1.15
2023-04-05T01:54:44.978Z,-1.16
2023-04-05T01:59:48.621Z,-1.26
2023-04-05T02:04:52.645Z,-1.31
2023-04-05T02:09:56.286Z,-1.44
2023-04-05T02:14:59.907Z,-1.51
2023-04-05T02:20:06.385Z,-1.57
2023-04-05T02:25:10.164Z,-1.66
2023-04-05T02:30:15.692Z,-1.71
2023-04-05T02:35:25.420Z,-1.73
2023-04-05T02:40:28.958Z,-1.70
2023-04-05T02:45:47.160Z,-1.71
2023-04-05T02:50:56.442Z,-1.69
2023-04-05T02:56:02.686Z,-1.70
2023-04-05T03:01:07.669Z,-1.70
2023-04-05T03:06:11.886Z,-1.72
2023-04-05T03:11:17.848Z,-1.81
2023-04-05T03:16:24.665Z,-1.85
2023-04-05T03:21:31.078Z,-1.88
2023-04-05T03:26:50.462Z,-1.91
2023-04-05T03:32:21.544Z,-1.97
2023-04-05T03:37:43.702Z,-1.88
2023-04-05T03:42:49.720Z,-1.72
2023-04-05T03:48:09.947Z,-1.43
2023-04-05T03:53:17.501Z,-1.30
2023-04-05T03:58:25.767Z,-1.30
2023-04-05T04:03:31.002Z,-1.33
2023-04-05T04:08:47.699Z,-1.30
2023-04-05T04:14:01.891Z,-1.24
2023-04-05T04:19:43.978Z,-1.20
2023-04-05T04:25:19.024Z,-1.17
2023-04-05T04:31:28.568Z,-1.12
2023-04-05T04:37:43.696Z,-1.08
2023-04-05T04:43:10.456Z,-1.02
2023-04-05T04:48:33.986Z,-0.88
2023-04-05T04:54:31.235Z,-0.71
2023-04-05T04:59:47.635Z,-0.57
2023-04-05T05:04:53.646Z,-0.55
2023-04-05T05:10:01.156Z,-0.55
2023-04-05T05:15:05.024Z,-0.49
2023-04-05T05:20:13.040Z,-0.45
2023-04-05T05:25:21.898Z,-0.43
2023-04-05T05:30:26.153Z,-0.38
2023-04-05T05:35:29.477Z,-0.23
2023-04-05T05:40:33.162Z,-0.09
2023-04-05T05:45:36.899Z,0.01
2023-04-05T05:50:40.947Z,0.06
2023-04-05T05:55:44.471Z,0.06
2023-04-05T06:00:50.527Z,0.12
2023-04-05T06:05:58.828Z,0.19
2023-04-05T06:11:02.275Z,0.26
2023-04-05T06:16:05.948Z,0.29
2023-04-05T06:21:09.350Z,0.35
2023-04-05T06:26:24.453Z,0.45
2023-04-05T06:31:48.592Z,0.50
2023-04-05T06:36:52.231Z,0.50
2023-04-05T06:42:06.643Z,0.53
2023-04-05T06:47:14.983Z,0.56
2023-04-05T06:52:21.064Z,0.54
2023-04-05T06:57:27.255Z,0.53
2023-04-05T07:02:51.193Z,0.55
2023-04-05T07:07:54.674Z,0.61
2023-04-05T07:12:58.320Z,0.76
2023-04-05T07:18:08.995Z,0.90
2023-04-05T07:23:12.372Z,1.01
2023-04-05T07:28:58.929Z,1.09
2023-04-05T07:34:15.099Z,1.14
2023-04-05T07:39:38.727Z,1.21
2023-04-05T07:44:44.751Z,1.25
2023-04-05T07:49:59.420Z,1.31
2023-04-05T07:55:07.434Z,1.39
2023-04-05T08:00:53.498Z,1.52
2023-04-05T08:06:20.366Z,1.72
2023-04-05T08:11:37.955Z,1.86
2023-04-05T08:16:41.348Z,1.98
2023-04-05T08:22:45.358Z,2.09
2023-04-05T08:28:19.575Z,2.27
2023-04-05T08:33:31.238Z,2.39
2023-04-05T08:38:49.229Z,2.44
2023-04-05T08:44:02.963Z,2.54
2023-04-05T08:49:08.618Z,2.58
2023-04-05T08:54:15.688Z,2.69
2023-04-05T08:59:26.372Z,2.73
2023-04-05T09:04:35.401Z,2.82
2023-04-05T09:09:42.548Z,2.91
2023-04-05T09:15:13.764Z,3.02
2023-04-05T09:20:27.997Z,3.06
2023-04-05T09:26:23.300Z,3.04
2023-04-05T09:31:35.998Z,3.05
2023-04-05T09:36:45.920Z,3.06
2023-04-05T09:42:23.140Z,3.06
2023-04-05T09:47:32.825Z,3.01
2023-04-05T09:52:42.296Z,2.96
2023-04-05T09:57:48.648Z,2.93
2023-04-05T10:03:07.862Z,2.88
2023-04-05T10:08:17.266Z,2.88
2023-04-05T10:13:41.591Z,2.86
2023-04-05T10:19:12.942Z,2.89
2023-04-05T10:24:36.778Z,2.94
2023-04-05T10:30:09.118Z,3.08
2023-04-05T10:35:20.586Z,3.11
2023-04-05T10:40:31.347Z,3.16
2023-04-05T10:45:37.489Z,3.19
2023-04-05T10:50:42.335Z,3.19
2023-04-05T10:55:58.495Z,3.26
2023-04-05T11:01:04.410Z,3.38
2023-04-05T11:06:24.504Z,3.54
2023-04-05T11:11:38.383Z,3.73
2023-04-05T11:17:11.137Z,4.01
2023-04-05T11:22:27.234Z,4.23
2023-04-05T11:27:31.915Z,4.32
2023-04-05T11:32:49.267Z,4.33
2023-04-05T11:38:02.169Z,4.28
2023-04-05T11:43:08.341Z,4.24
2023-04-05T11:48:16.010Z,4.19
2023-04-05T11:53:21.779Z,4.26
2023-04-05T11:58:35.803Z,4.37
2023-04-05T12:03:54.988Z,4.49
2023-04-05T12:09:08.996Z,4.49
2023-04-05T12:14:13.074Z,4.66
2023-04-05T12:19:33.622Z,4.90
2023-04-05T12:24:37.141Z,5.06
2023-04-05T12:30:44.950Z,5.15
2023-04-05T12:35:51.693Z,5.25
2023-04-05T12:41:34.791Z,5.18
2023-04-05T12:47:10.596Z,5.13
2023-04-05T12:52:47.750Z,5.13
2023-04-05T12:58:51.901Z,5.15
2023-04-05T13:04:35.815Z,5.22
2023-04-05T13:10:23.036Z,5.16
2023-04-05T13:16:07.209Z,5.11
2023-04-05T13:21:47.740Z,5.06
2023-04-05T13:27:21.387Z,5.06
2023-04-05T13:33:15.465Z,5.09
2023-04-05T13:38:43.531Z,5.15
2023-04-05T13:43:58.857Z,5.23
2023-04-05T13:49:15.734Z,5.27
2023-04-05T13:55:02.696Z,5.23
2023-04-05T14:00:14.816Z,5.30
2023-04-05T14:05:21.450Z,5.31
2023-04-05T14:10:24.855Z,5.28
2023-04-05T14:15:30.078Z,5.29
2023-04-05T14:20:33.746Z,5.29
2023-04-05T14:25:37.400Z,5.27
2023-04-05T14:31:31.203Z,5.22
2023-04-05T14:36:34.668Z,5.12
2023-04-05T14:41:58.671Z,5.01
2023-04-05T14:47:36.429Z,4.92
2023-04-05T14:52:42.680Z,4.94
2023-04-05T14:57:46.444Z,4.95
2023-04-05T15:02:56.129Z,4.98
2023-04-05T15:08:00.519Z,5.01
2023-04-05T15:13:06.599Z,5.04
2023-04-05T15:18:23.630Z,5.05
2023-04-05T15:23:47.490Z,5.04
2023-04-05T15:29:03.785Z,5.03
2023-04-05T15:34:20.510Z,5.04
2023-04-05T15:39:58.819Z,5.00
2023-04-05T15:45:07.678Z,4.96
2023-04-05T15:50:14.029Z,4.95
2023-04-05T15:55:20.326Z,4.92
2023-04-05T16:00:47.256Z,4.83
2023-04-05T16:05:51.474Z,4.80
2023-04-05T16:11:48.544Z,4.77
2023-04-05T16:17:55.392Z,4.70
2023-04-05T16:23:32.642Z,4.63
2023-04-05T16:29:16.778Z,4.55
2023-04-05T16:34:48.468Z,4.51
2023-04-05T16:40:15.644Z,4.46
2023-04-05T16:45:54.008Z,4.44
2023-04-05T16:51:48.047Z,4.45
2023-04-05T16:56:54.230Z,4.42
2023-04-05T17:02:14.320Z,4.39
2023-04-05T17:07:21.395Z,4.35
2023-04-05T17:12:28.150Z,4.32
2023-04-05T17:17:51.989Z,4.30
2023-04-05T17:23:36.648Z,4.23
2023-04-05T17:29:03.717Z,4.17
2023-04-05T17:34:09.585Z,4.09
2023-04-05T17:39:13.932Z,4.05
2023-04-05T17:44:17.414Z,4.00
2023-04-05T17:49:21.247Z,3.96
2023-04-05T17:54:30.682Z,3.92
2023-04-05T17:59:54.494Z,3.88
2023-04-05T18:05:01.073Z,3.84
2023-04-05T18:10:08.367Z,3.81
2023-04-05T18:15:18.598Z,3.80
2023-04-05T18:20:31.737Z,3.81
2023-04-05T18:26:31.896Z,3.77
2023-04-05T18:32:21.840Z,3.75
2023-04-05T18:37:27.748Z,3.70
2023-04-05T18:42:35.670Z,3.66
2023-04-05T18:48:01.322Z,3.64
2023-04-05T18:53:09.505Z,3.65
2023-04-05T18:58:13.318Z,3.64
2023-04-05T19:03:44.806Z,3.61
2023-04-05T19:09:08.963Z,3.60
2023-04-05T19:14:35.989Z,3.60
2023-04-05T19:19:53.773Z,3.56
2023-04-05T19:24:57.203Z,3.56
2023-04-05T19:30:07.175Z,3.54
2023-04-05T19:35:11.007Z,3.52
2023-04-05T19:40:27.531Z,3.51
2023-04-05T19:46:00.303Z,3.46
2023-04-05T19:51:36.481Z,3.44
2023-04-05T19:56:43.188Z,3.43
2023-04-05T20:02:15.867Z,3.41
2023-04-05T20:07:19.517Z,3.37
2023-04-05T20:12:26.224Z,3.38
2023-04-05T20:17:29.779Z,3.37
2023-04-05T20:22:40.690Z,3.35
2023-04-05T20:27:51.275Z,3.34
2023-04-05T20:33:47.548Z,3.34
2023-04-05T20:39:07.642Z,3.33
2023-04-05T20:45:22.282Z,3.33
2023-04-05T20:50:56.077Z,3.29
2023-04-05T20:56:40.095Z,3.29
2023-04-05T21:01:47.277Z,3.30
2023-04-05T21:07:14.509Z,3.28
2023-04-05T21:12:54.015Z,3.24
2023-04-05T21:18:16.017Z,3.26
2023-04-05T21:23:22.603Z,3.25
2023-04-05T21:28:28.868Z,3.23
2023-04-05T21:33:41.636Z,3.22
2023-04-05T21:39:11.773Z,3.21
2023-04-05T21:44:28.293Z,3.19
2023-04-05T21:49:31.601Z,3.19
2023-04-05T21:54:35.519Z,3.20
2023-04-05T21:59:42.430Z,3.20
2023-04-05T22:04:46.177Z,3.22
2023-04-05T22:09:49.670Z,3.22
2023-04-05T22:14:58.014Z,3.21
2023-04-05T22:20:05.166Z,3.19
2023-04-05T22:25:09.886Z,3.19
2023-04-05T22:30:20.521Z,3.20
2023-04-05T22:35:35.902Z,3.16
2023-04-05T22:40:44.940Z,3.12
2023-04-05T22:45:54.183Z,3.12
2023-04-05T22:51:00.988Z,3.13
2023-04-05T22:56:07.404Z,3.12
2023-04-05T23:01:13.521Z,3.11
2023-04-05T23:06:17.097Z,3.09
2023-04-05T23:11:22.723Z,3.07
2023-04-05T23:16:26.206Z,3.06
2023-04-05T23:21:29.597Z,3.06
2023-04-05T23:26:34.499Z,3.06
2023-04-05T23:31:37.974Z,3.07
2023-04-05T23:36:44.879Z,3.08
2023-04-05T23:42:08.894Z,3.08
2023-04-05T23:47:15.026Z,3.04
2023-04-05T23:52:50.060Z,3.02
2023-04-05T23:58:15.970Z,3.00
